LFPG/CDG METAR and TAF weather

Enter ICAO airport designator
Station Type Date Time Source
LFPG METAR 2024/04/23 05:30 UTC NOAA

LFPG 230530Z 02006KT 340V140 CAVOK 01/M00 Q1021 NOSIG


Station Type Date Time Source
LFPG Decoded METAR 2024/04/23 05:30 UTC NOAA

Paris-Aeroport Charles De Gaulle, France (LFPG) 49-01N 002-32E 109M
Apr 23, 2024 - 01:30 AM EDT / 2024.04.23 0530 UTC
Wind: from the NNE (020 degrees) at 7 MPH (6 KT) (direction variable):0
Visibility: greater than 7 mile(s):0
Temperature: 33 F (1 C)
Windchill: 26 F (-3 C):1
Dew Point: 32 F (0 C)
Relative Humidity: 93%
Pressure (altimeter): 30.15 in. Hg (1021 hPa)
ob: LFPG 230530Z 02006KT 340V140 CAVOK 01/M00 Q1021 NOSIG
cycle: 5

Station Type Date Time Source
LFPG TAF 2024/04/23 06:21 UTC NOAA